VOE9ZE LEBB-LIPZ
Flight info
| Callsign | VOE9ZE |
|---|---|
| Flight time | N/A |
| Altitude | 30000 |
| Route | PPN DCT LATEK/N0444F360 DCT GONUP DCT TOU DCT GAI DCT MEN DCT NINUN DCT LATAM DCT ROMAM/N0448F370 DCT ETIDO DCT NEDRU DCT RILIP DCT EMMEF DCT LAPRI/N0441F360 DCT MOGBO/N0426F320 DCT OSKOR/N0430F340 DCT ADOSA/N0364F190 L612 ALBET |
| Aircraft | A320/M-SDFGIJ1RWY/LB1 |
Departure
| Time | N/A |
|---|---|
| Airport | Bilbao Airport (LEBB) |
Arrival
| Time | 2026-05-06 13:24 |
|---|---|
| Airport | Venice Marco Polo Airport (LIPZ) |
| Time | Latitude | Longitude | Altitude | Speed | Heading |
|---|---|---|---|---|---|
| 2026-05-06 12:56 | 45.24869 | 8.45268 | 29828 ft | 484 kts | 75° |
| 2026-05-06 12:56 | 45.27107 | 8.54258 | 29827 ft | 484 kts | 75° |
| 2026-05-06 12:57 | 45.29048 | 8.62076 | 29815 ft | 484 kts | 75° |
| 2026-05-06 12:57 | 45.31274 | 8.71093 | 29825 ft | 484 kts | 75° |
| 2026-05-06 12:58 | 45.33503 | 8.80121 | 29825 ft | 484 kts | 75° |
| 2026-05-06 12:58 | 45.35732 | 8.89199 | 29828 ft | 484 kts | 75° |
| 2026-05-06 12:59 | 45.37942 | 8.98244 | 29828 ft | 483 kts | 75° |
| 2026-05-06 12:59 | 45.40142 | 9.07284 | 29825 ft | 484 kts | 75° |
| 2026-05-06 13:00 | 45.42342 | 9.16340 | 29828 ft | 484 kts | 75° |
| 2026-05-06 13:00 | 45.44534 | 9.25402 | 29843 ft | 485 kts | 75° |
| 2026-05-06 13:01 | 45.46718 | 9.34489 | 29846 ft | 485 kts | 76° |
| 2026-05-06 13:01 | 45.48892 | 9.43596 | 29847 ft | 485 kts | 76° |
| 2026-05-06 13:02 | 45.51025 | 9.52524 | 29847 ft | 486 kts | 76° |
| 2026-05-06 13:02 | 45.53201 | 9.61659 | 29849 ft | 487 kts | 76° |
| 2026-05-06 13:03 | 45.55377 | 9.70819 | 29856 ft | 488 kts | 76° |
| 2026-05-06 13:03 | 45.57537 | 9.80000 | 29862 ft | 488 kts | 76° |
| 2026-05-06 13:04 | 45.59686 | 9.89187 | 29863 ft | 488 kts | 76° |
| 2026-05-06 13:04 | 45.61842 | 9.98396 | 29859 ft | 489 kts | 76° |
| 2026-05-06 13:05 | 45.63973 | 10.07625 | 29858 ft | 488 kts | 79° |
| 2026-05-06 13:05 | 45.64921 | 10.17120 | 29861 ft | 474 kts | 97° |
| 2026-05-06 13:06 | 45.64889 | 10.26526 | 29765 ft | 473 kts | 97° |
| 2026-05-06 13:06 | 45.64874 | 10.31243 | 28915 ft | 478 kts | 97° |
| 2026-05-06 13:06 | 45.64862 | 10.35978 | 28341 ft | 475 kts | 97° |
| 2026-05-06 13:06 | 45.64852 | 10.40682 | 27745 ft | 471 kts | 96° |
| 2026-05-06 13:07 | 45.64841 | 10.45341 | 27170 ft | 467 kts | 96° |
| 2026-05-06 13:07 | 45.64824 | 10.49965 | 26584 ft | 464 kts | 96° |
| 2026-05-06 13:07 | 45.64801 | 10.54559 | 26022 ft | 460 kts | 96° |
| 2026-05-06 13:07 | 45.64777 | 10.59107 | 25481 ft | 456 kts | 96° |
| 2026-05-06 13:08 | 45.64750 | 10.63618 | 24954 ft | 451 kts | 96° |
| 2026-05-06 13:08 | 45.64721 | 10.68082 | 24428 ft | 447 kts | 96° |
| 2026-05-06 13:08 | 45.64690 | 10.72497 | 23908 ft | 443 kts | 96° |
| 2026-05-06 13:08 | 45.64660 | 10.76877 | 23376 ft | 439 kts | 96° |
| 2026-05-06 13:09 | 45.64629 | 10.81229 | 22847 ft | 436 kts | 96° |
| 2026-05-06 13:09 | 45.64599 | 10.85533 | 22388 ft | 431 kts | 96° |
| 2026-05-06 13:09 | 45.64567 | 10.89796 | 21926 ft | 426 kts | 96° |
| 2026-05-06 13:09 | 45.64533 | 10.93991 | 21508 ft | 421 kts | 96° |
| 2026-05-06 13:10 | 45.64463 | 10.98162 | 20993 ft | 416 kts | 100° |
| 2026-05-06 13:10 | 45.63956 | 11.02167 | 20531 ft | 404 kts | 112° |
| 2026-05-06 13:10 | 45.62942 | 11.05843 | 20070 ft | 393 kts | 123° |
| 2026-05-06 13:10 | 45.61548 | 11.09141 | 19624 ft | 385 kts | 128° |
| 2026-05-06 13:11 | 45.60111 | 11.12347 | 19154 ft | 382 kts | 128° |
| 2026-05-06 13:11 | 45.58679 | 11.15525 | 18664 ft | 379 kts | 128° |
| 2026-05-06 13:11 | 45.57260 | 11.18667 | 18149 ft | 375 kts | 128° |
| 2026-05-06 13:11 | 45.55862 | 11.21766 | 17365 ft | 373 kts | 128° |
| 2026-05-06 13:12 | 45.54468 | 11.24859 | 17013 ft | 367 kts | 128° |
| 2026-05-06 13:12 | 45.53095 | 11.27931 | 16473 ft | 367 kts | 126° |
| 2026-05-06 13:12 | 45.52041 | 11.31223 | 15715 ft | 366 kts | 114° |
| 2026-05-06 13:12 | 45.51218 | 11.34697 | 14745 ft | 364 kts | 113° |
| 2026-05-06 13:13 | 45.50451 | 11.38066 | 13924 ft | 360 kts | 113° |
| 2026-05-06 13:13 | 45.49694 | 11.41449 | 13393 ft | 346 kts | 113° |
| 2026-05-06 13:13 | 45.48977 | 11.44655 | 12963 ft | 332 kts | 113° |
| 2026-05-06 13:13 | 45.48286 | 11.47721 | 12540 ft | 319 kts | 114° |
| 2026-05-06 13:14 | 45.47616 | 11.50667 | 12130 ft | 307 kts | 114° |
| 2026-05-06 13:14 | 45.46947 | 11.53559 | 11711 ft | 307 kts | 114° |
| 2026-05-06 13:14 | 45.46272 | 11.56440 | 11317 ft | 307 kts | 114° |
| 2026-05-06 13:14 | 45.45593 | 11.59321 | 10904 ft | 306 kts | 113° |
| 2026-05-06 13:15 | 45.44916 | 11.62207 | 10492 ft | 307 kts | 113° |
| 2026-05-06 13:15 | 45.44244 | 11.65088 | 10128 ft | 305 kts | 112° |
| 2026-05-06 13:15 | 45.43586 | 11.67924 | 9874 ft | 299 kts | 112° |
| 2026-05-06 13:15 | 45.42938 | 11.70713 | 9746 ft | 296 kts | 113° |
| 2026-05-06 13:16 | 45.42289 | 11.73498 | 9446 ft | 298 kts | 112° |
| 2026-05-06 13:16 | 45.41633 | 11.76305 | 9030 ft | 297 kts | 112° |
| 2026-05-06 13:16 | 45.40984 | 11.79082 | 8411 ft | 295 kts | 112° |
| 2026-05-06 13:16 | 45.40346 | 11.81812 | 7823 ft | 290 kts | 112° |
| 2026-05-06 13:17 | 45.39714 | 11.84505 | 7303 ft | 284 kts | 112° |
| 2026-05-06 13:17 | 45.39090 | 11.87160 | 6784 ft | 281 kts | 112° |
| 2026-05-06 13:17 | 45.38476 | 11.89775 | 6265 ft | 279 kts | 112° |
| 2026-05-06 13:17 | 45.37859 | 11.92392 | 5817 ft | 279 kts | 111° |
| 2026-05-06 13:18 | 45.37238 | 11.95011 | 5357 ft | 279 kts | 111° |
| 2026-05-06 13:18 | 45.36635 | 11.97622 | 4928 ft | 277 kts | 107° |
| 2026-05-06 13:18 | 45.36563 | 12.00294 | 4807 ft | 268 kts | 81° |
| 2026-05-06 13:18 | 45.37029 | 12.02768 | 4666 ft | 249 kts | 75° |
| 2026-05-06 13:19 | 45.37546 | 12.05061 | 4309 ft | 240 kts | 74° |
| 2026-05-06 13:19 | 45.38061 | 12.07296 | 3835 ft | 237 kts | 74° |
| 2026-05-06 13:19 | 45.38575 | 12.09519 | 3350 ft | 235 kts | 74° |
| 2026-05-06 13:19 | 45.39068 | 12.11652 | 3193 ft | 219 kts | 74° |
| 2026-05-06 13:20 | 45.39532 | 12.13651 | 2962 ft | 209 kts | 74° |
| 2026-05-06 13:20 | 45.39990 | 12.15617 | 2613 ft | 205 kts | 75° |
| 2026-05-06 13:20 | 45.40437 | 12.17534 | 2282 ft | 204 kts | 75° |
| 2026-05-06 13:20 | 45.40866 | 12.19384 | 2186 ft | 190 kts | 74° |
| 2026-05-06 13:21 | 45.41262 | 12.21073 | 2075 ft | 170 kts | 74° |
| 2026-05-06 13:21 | 45.41632 | 12.22627 | 2008 ft | 163 kts | 74° |
| 2026-05-06 13:21 | 45.42008 | 12.24084 | 1954 ft | 155 kts | 64° |
| 2026-05-06 13:21 | 45.42724 | 12.25203 | 1791 ft | 151 kts | 45° |
| 2026-05-06 13:22 | 45.43241 | 12.25861 | 1665 ft | 150 kts | 45° |
| 2026-05-06 13:22 | 45.44007 | 12.26839 | 1460 ft | 147 kts | 45° |
| 2026-05-06 13:22 | 45.44761 | 12.27803 | 1264 ft | 145 kts | 45° |
| 2026-05-06 13:22 | 45.45504 | 12.28756 | 1073 ft | 143 kts | 45° |
| 2026-05-06 13:23 | 45.46244 | 12.29704 | 883 ft | 142 kts | 45° |
| 2026-05-06 13:23 | 45.46978 | 12.30645 | 695 ft | 142 kts | 45° |
| 2026-05-06 13:23 | 45.47708 | 12.31583 | 506 ft | 142 kts | 45° |
| 2026-05-06 13:23 | 45.48437 | 12.32517 | 320 ft | 141 kts | 44° |
| 2026-05-06 13:24 | 45.49165 | 12.33453 | 133 ft | 141 kts | 44° |
| 2026-05-06 13:24 | 45.49881 | 12.34380 | 13 ft | 130 kts | 43° |
| 2026-05-06 13:24 | 45.50436 | 12.35093 | 11 ft | 83 kts | 41° |
| 2026-05-06 13:24 | 45.50748 | 12.35493 | 16 ft | 30 kts | 39° |
| 2026-05-06 13:25 | 45.50919 | 12.35565 | 17 ft | 19 kts | 12° |
| 2026-05-06 13:25 | 45.50993 | 12.35496 | 18 ft | 11 kts | 277° |
| 2026-05-06 13:25 | 45.50988 | 12.35413 | 18 ft | 7 kts | 258° |
| 2026-05-06 13:25 | 45.50979 | 12.35360 | 19 ft | 5 kts | 257° |
| 2026-05-06 13:26 | 45.50974 | 12.35322 | 19 ft | 3 kts | 258° |
| 2026-05-06 13:26 | 45.50969 | 12.35294 | 19 ft | 3 kts | 258° |
| 2026-05-06 13:26 | 45.50961 | 12.35237 | 19 ft | 11 kts | 256° |
| 2026-05-06 13:26 | 45.50919 | 12.35150 | 21 ft | 11 kts | 222° |
| 2026-05-06 13:27 | 45.50859 | 12.35076 | 19 ft | 11 kts | 221° |
| 2026-05-06 13:27 | 45.50795 | 12.34996 | 16 ft | 13 kts | 221° |
| 2026-05-06 13:27 | 45.50723 | 12.34904 | 16 ft | 14 kts | 222° |
| 2026-05-06 13:27 | 45.50648 | 12.34807 | 17 ft | 16 kts | 221° |
| 2026-05-06 13:28 | 45.50605 | 12.34662 | 15 ft | 17 kts | 266° |
| 2026-05-06 13:28 | 45.50598 | 12.34503 | 16 ft | 16 kts | 267° |
| 2026-05-06 13:28 | 45.50615 | 12.34363 | 15 ft | 14 kts | 285° |
| 2026-05-06 13:28 | 45.50615 | 12.34243 | 14 ft | 9 kts | 268° |
| 2026-05-06 13:29 | 45.50614 | 12.34207 | 14 ft | 1 kts | 269° |
| 2026-05-06 13:29 | 45.50614 | 12.34203 | 14 ft | 0 kts | 269° |